Time;durP1;ratioP1;P1;durP2;ratioP2;P2;SDS_P1;SDS_P2;PMS_P1;PMS_P2;Temp;Humidity;BMP_temperature;BMP_pressure;BME280_temperature;BME280_humidity;BME280_pressure;Samples;Min_cycle;Max_cycle;Signal;HPM_P1;HPM_P2
2023/04/09 00:02:25;;;;;;;;;;;8.60;99.90;;;;;;5019863;28;20007;-78
2023/04/09 00:04:51;;;;;;;;;;;8.50;99.90;;;;;;5017893;28;19979;-78
2023/04/09 00:07:16;;;;;;;;;;;8.60;99.90;;;;;;5035286;28;20008;-78
2023/04/09 00:09:42;;;;;;;;;;;8.60;99.90;;;;;;5005755;28;19917;-78
2023/04/09 00:12:07;;;;;;;;;;;8.60;99.90;;;;;;5036517;28;19995;-78
2023/04/09 00:14:33;;;;;;;;;;;8.60;99.90;;;;;;5020461;28;19917;-78
2023/04/09 00:16:59;;;;;;;;;;;8.60;99.90;;;;;;5038934;28;19921;-78
2023/04/09 00:19:24;;;;;;;;;;;8.50;99.90;;;;;;5042743;28;19927;-78
2023/04/09 00:21:51;;;;;;;;;;;8.50;99.90;;;;;;5042658;28;19978;-78
2023/04/09 00:24:16;;;;;;;;;;;8.60;99.90;;;;;;5021816;28;19917;-79
2023/04/09 00:26:42;;;;;;;;;;;8.50;99.90;;;;;;5043580;28;19928;-78
2023/04/09 00:29:08;;;;;;;;;;;8.40;99.90;;;;;;5020343;28;19928;-78
2023/04/09 00:31:33;;;;;;;;;;;8.30;99.90;;;;;;5043832;28;19955;-78
2023/04/09 00:33:59;;;;;;;;;;;8.30;99.90;;;;;;5040711;28;19998;-78
2023/04/09 00:36:25;;;;;;;;;;;8.30;99.90;;;;;;5022395;28;20019;-78
2023/04/09 00:38:52;;;;;;;;;;;8.40;99.90;;;;;;5043153;28;19920;-78
2023/04/09 00:41:18;;;;;;;;;;;8.30;99.90;;;;;;5044606;28;19920;-78
2023/04/09 00:43:44;;;;;;;;;;;8.30;99.90;;;;;;5042873;28;19916;-78
2023/04/09 00:46:09;;;;;;;;;;;8.40;99.90;;;;;;5042287;28;20424;-78
2023/04/09 00:48:35;;;;;;;;;;;8.30;99.90;;;;;;5040268;28;20361;-78
2023/04/09 00:51:01;;;;;;;;;;;8.30;99.90;;;;;;5045352;28;19916;-78
2023/04/09 00:53:26;;;;;;;;;;;8.30;99.90;;;;;;5041487;28;19921;-78
2023/04/09 00:55:52;;;;;;;;;;;8.30;99.90;;;;;;5040537;28;19931;-78
2023/04/09 00:58:18;;;;;;;;;;;8.30;99.90;;;;;;5043317;28;19975;-78
2023/04/09 01:00:43;;;;;;;;;;;8.30;99.90;;;;;;5036666;28;19929;-78
2023/04/09 01:03:09;;;;;;;;;;;8.30;99.90;;;;;;5046275;28;20308;-78
2023/04/09 01:05:43;;;;;;;;;;;8.30;99.90;;;;;;5042068;28;19921;-78
2023/04/09 01:08:27;;;;;;;;;;;8.20;99.90;;;;;;5023649;28;19921;-78
2023/04/09 01:10:52;;;;;;;;;;;8.20;99.90;;;;;;5044279;28;19967;-78
2023/04/09 01:13:29;;;;;;;;;;;8.20;99.90;;;;;;5043790;28;19932;-78
2023/04/09 01:15:55;;;;;;;;;;;8.30;99.90;;;;;;5043433;28;20397;-78
2023/04/09 01:18:41;;;;;;;;;;;8.30;99.90;;;;;;5024847;28;19916;-78
2023/04/09 01:21:19;;;;;;;;;;;8.30;99.90;;;;;;5025099;28;19924;-79
2023/04/09 01:24:03;;;;;;;;;;;8.20;99.90;;;;;;5044159;28;20004;-78
2023/04/09 01:26:47;;;;;;;;;;;8.30;99.90;;;;;;5038543;28;19921;-78
2023/04/09 01:29:15;;;;;;;;;;;8.40;99.90;;;;;;5020410;28;19924;-78
2023/04/09 01:31:41;;;;;;;;;;;8.40;99.90;;;;;;5041349;28;20143;-78
2023/04/09 01:34:07;;;;;;;;;;;8.30;99.90;;;;;;5040877;28;19920;-77
2023/04/09 01:36:34;;;;;;;;;;;8.30;99.90;;;;;;5035489;28;19917;-78
2023/04/09 01:39:01;;;;;;;;;;;8.20;99.90;;;;;;5036644;28;19982;-78
2023/04/09 01:41:27;;;;;;;;;;;8.20;99.90;;;;;;5038004;28;19927;-78
2023/04/09 01:43:52;;;;;;;;;;;8.10;99.90;;;;;;5037926;28;19929;-78
2023/04/09 01:46:18;;;;;;;;;;;8.10;99.90;;;;;;5039036;28;19947;-78
2023/04/09 01:48:45;;;;;;;;;;;8.20;99.90;;;;;;5036861;28;20389;-78
2023/04/09 01:51:13;;;;;;;;;;;8.20;99.90;;;;;;5033537;28;20618;-78
2023/04/09 01:53:38;;;;;;;;;;;8.20;99.90;;;;;;5040887;28;19927;-79
2023/04/09 01:56:04;;;;;;;;;;;8.20;99.90;;;;;;5038942;28;19921;-78
2023/04/09 01:58:32;;;;;;;;;;;8.20;99.90;;;;;;5022280;28;19916;-78
2023/04/09 02:01:10;;;;;;;;;;;8.20;99.90;;;;;;5024653;28;20023;-78
2023/04/09 02:03:47;;;;;;;;;;;8.20;99.90;;;;;;5035982;28;19920;-78
2023/04/09 02:06:21;;;;;;;;;;;8.20;99.90;;;;;;5014154;28;19956;-78
2023/04/09 02:08:47;;;;;;;;;;;8.20;99.90;;;;;;5029031;28;19917;-78
2023/04/09 02:11:13;;;;;;;;;;;8.20;99.90;;;;;;5025758;28;20016;-78
2023/04/09 02:13:40;;;;;;;;;;;8.20;99.90;;;;;;5015411;28;19924;-78
2023/04/09 02:16:06;;;;;;;;;;;8.10;99.90;;;;;;5020759;28;19925;-78
2023/04/09 02:18:31;;;;;;;;;;;8.10;99.90;;;;;;5039845;28;19974;-78
2023/04/09 02:20:58;;;;;;;;;;;8.20;99.90;;;;;;5034311;28;19916;-78
2023/04/09 02:23:23;;;;;;;;;;;8.20;99.90;;;;;;5035722;28;19921;-78
2023/04/09 02:25:49;;;;;;;;;;;8.10;99.90;;;;;;5027979;28;19943;-78
2023/04/09 02:28:15;;;;;;;;;;;8.20;99.90;;;;;;5025931;28;19924;-78
2023/04/09 02:30:40;;;;;;;;;;;8.10;99.90;;;;;;5042047;28;20007;-78
2023/04/09 02:33:06;;;;;;;;;;;8.10;99.90;;;;;;5039255;28;19943;-78
2023/04/09 02:35:32;;;;;;;;;;;8.10;99.90;;;;;;5041579;28;19921;-78
2023/04/09 02:37:58;;;;;;;;;;;8.10;99.90;;;;;;5038097;28;19925;-78
2023/04/09 02:40:23;;;;;;;;;;;8.00;99.90;;;;;;5006178;28;19928;-78
2023/04/09 02:42:49;;;;;;;;;;;8.10;99.90;;;;;;5038718;28;20284;-78
2023/04/09 02:45:15;;;;;;;;;;;8.00;99.90;;;;;;5042411;28;19921;-78
2023/04/09 02:47:40;;;;;;;;;;;8.00;99.90;;;;;;5035719;28;19999;-78
2023/04/09 02:50:06;;;;;;;;;;;8.10;99.90;;;;;;5011821;28;19983;-78
2023/04/09 02:52:32;;;;;;;;;;;8.00;99.90;;;;;;5027685;28;19920;-78
2023/04/09 02:54:57;;;;;;;;;;;8.00;99.90;;;;;;5011111;28;19916;-78
2023/04/09 02:57:23;;;;;;;;;;;8.00;99.90;;;;;;5040377;28;19927;-78
2023/04/09 02:59:48;;;;;;;;;;;8.00;99.90;;;;;;5032184;28;20005;-78
2023/04/09 03:02:14;;;;;;;;;;;8.00;99.90;;;;;;5039966;28;19974;-78
2023/04/09 03:04:39;;;;;;;;;;;8.00;99.90;;;;;;5017819;28;19917;-79
2023/04/09 03:07:05;;;;;;;;;;;8.00;99.90;;;;;;5004652;28;20404;-78
2023/04/09 03:09:31;;;;;;;;;;;8.00;99.90;;;;;;5040923;28;20286;-78
2023/04/09 03:11:56;;;;;;;;;;;7.90;99.90;;;;;;5036984;28;20362;-78
2023/04/09 03:14:22;;;;;;;;;;;8.00;99.90;;;;;;5032130;28;19961;-78
2023/04/09 03:16:48;;;;;;;;;;;7.90;99.90;;;;;;5021102;28;19921;-78
2023/04/09 03:19:13;;;;;;;;;;;7.90;99.90;;;;;;5032614;28;20024;-78
2023/04/09 03:21:39;;;;;;;;;;;8.00;99.90;;;;;;5028810;28;19920;-78
2023/04/09 03:24:05;;;;;;;;;;;8.00;99.90;;;;;;5027203;28;19975;-78
2023/04/09 03:26:35;;;;;;;;;;;8.00;99.90;;;;;;5029679;28;19962;-78
2023/04/09 03:29:01;;;;;;;;;;;8.00;99.90;;;;;;5014521;28;19921;-78
2023/04/09 03:31:26;;;;;;;;;;;7.90;99.90;;;;;;5038980;28;20275;-78
2023/04/09 03:33:52;;;;;;;;;;;8.00;99.90;;;;;;5020446;28;19917;-78
2023/04/09 03:36:17;;;;;;;;;;;8.00;99.90;;;;;;5044589;28;19921;-78
2023/04/09 03:38:43;;;;;;;;;;;8.00;99.90;;;;;;5039279;28;19963;-78
2023/04/09 03:41:08;;;;;;;;;;;8.00;99.90;;;;;;5036629;28;20004;-78
2023/04/09 03:43:35;;;;;;;;;;;7.90;99.90;;;;;;5021969;28;19929;-78
2023/04/09 03:46:00;;;;;;;;;;;7.90;99.90;;;;;;5003887;28;19916;-78
2023/04/09 03:48:26;;;;;;;;;;;8.00;99.90;;;;;;5032407;28;19955;-78
2023/04/09 03:50:52;;;;;;;;;;;8.00;99.90;;;;;;5031908;28;20024;-78
2023/04/09 03:53:18;;;;;;;;;;;8.00;99.90;;;;;;5012471;28;19921;-78
2023/04/09 03:55:43;;;;;;;;;;;8.00;99.90;;;;;;5036176;28;19917;-78
2023/04/09 03:58:09;;;;;;;;;;;8.00;99.90;;;;;;5017920;28;19916;-78
2023/04/09 04:00:35;;;;;;;;;;;8.00;99.90;;;;;;5027923;28;19921;-78
2023/04/09 04:03:01;;;;;;;;;;;8.00;99.90;;;;;;5019504;28;19928;-78
2023/04/09 04:05:26;;;;;;;;;;;8.10;99.90;;;;;;5035753;28;20004;-78
2023/04/09 04:07:52;;;;;;;;;;;8.10;99.90;;;;;;5014183;28;19966;-78
2023/04/09 04:10:18;;;;;;;;;;;8.10;99.90;;;;;;5037754;28;19920;-78
2023/04/09 04:12:44;;;;;;;;;;;8.10;99.90;;;;;;5024414;28;19928;-78
2023/04/09 04:15:09;;;;;;;;;;;8.00;99.90;;;;;;5037461;28;19920;-78
2023/04/09 04:17:35;;;;;;;;;;;8.00;99.90;;;;;;5030651;28;19931;-78
2023/04/09 04:20:00;;;;;;;;;;;8.00;99.90;;;;;;5039427;28;19921;-78
2023/04/09 04:22:26;;;;;;;;;;;8.10;99.90;;;;;;5037794;28;19921;-78
2023/04/09 04:24:51;;;;;;;;;;;8.10;99.90;;;;;;5022151;28;19916;-79
2023/04/09 04:27:17;;;;;;;;;;;8.10;99.90;;;;;;5039150;28;19964;-78
2023/04/09 04:29:43;;;;;;;;;;;8.10;99.90;;;;;;5023269;28;19924;-78
2023/04/09 04:32:08;;;;;;;;;;;8.10;99.90;;;;;;5038135;28;19983;-79
2023/04/09 04:34:34;;;;;;;;;;;8.10;99.90;;;;;;5021469;28;19928;-78
2023/04/09 04:36:59;;;;;;;;;;;8.10;99.90;;;;;;5038142;28;19920;-78
2023/04/09 04:39:25;;;;;;;;;;;8.10;99.90;;;;;;5038969;28;19982;-78
2023/04/09 04:41:50;;;;;;;;;;;8.10;99.90;;;;;;5022292;28;20039;-78
2023/04/09 04:44:16;;;;;;;;;;;8.10;99.90;;;;;;5021767;28;19923;-78
2023/04/09 04:46:41;;;;;;;;;;;8.10;99.90;;;;;;5020858;28;19920;-78
2023/04/09 04:49:07;;;;;;;;;;;8.10;99.90;;;;;;5020168;28;19995;-78
2023/04/09 04:51:32;;;;;;;;;;;8.10;99.90;;;;;;5022346;28;20004;-78
2023/04/09 04:53:58;;;;;;;;;;;8.10;99.90;;;;;;5020270;28;20011;-78
2023/04/09 04:56:23;;;;;;;;;;;8.10;99.90;;;;;;5018220;28;20007;-78
2023/04/09 04:58:49;;;;;;;;;;;8.10;99.90;;;;;;5018729;28;20019;-78
2023/04/09 05:01:15;;;;;;;;;;;8.10;99.90;;;;;;5021103;28;20003;-79
2023/04/09 05:03:40;;;;;;;;;;;8.00;99.90;;;;;;5024925;28;20366;-79
2023/04/09 05:06:06;;;;;;;;;;;8.10;99.90;;;;;;5024004;28;19968;-78
2023/04/09 05:08:31;;;;;;;;;;;8.10;99.90;;;;;;5036099;28;19988;-78
2023/04/09 05:10:57;;;;;;;;;;;8.10;99.90;;;;;;5007733;28;19952;-79
2023/04/09 05:13:22;;;;;;;;;;;8.20;99.90;;;;;;5006590;28;20094;-78
2023/04/09 05:15:48;;;;;;;;;;;8.20;99.90;;;;;;5041585;28;19920;-78
2023/04/09 05:18:14;;;;;;;;;;;8.20;99.90;;;;;;5042464;28;19928;-76
2023/04/09 05:20:39;;;;;;;;;;;8.20;99.90;;;;;;5033113;28;19931;-78
2023/04/09 05:23:05;;;;;;;;;;;8.30;99.90;;;;;;5009405;28;19986;-78
2023/04/09 05:25:30;;;;;;;;;;;8.40;99.90;;;;;;5021762;28;20357;-78
2023/04/09 05:27:56;;;;;;;;;;;8.40;99.90;;;;;;5029504;28;20499;-78
2023/04/09 05:30:21;;;;;;;;;;;8.50;99.90;;;;;;5023071;28;20025;-79
2023/04/09 05:32:47;;;;;;;;;;;8.60;99.90;;;;;;5022507;28;19935;-78
2023/04/09 05:35:13;;;;;;;;;;;8.80;99.90;;;;;;5027174;28;19920;-78
2023/04/09 05:37:38;;;;;;;;;;;8.70;99.90;;;;;;5022956;28;19920;-78
2023/04/09 05:40:04;;;;;;;;;;;8.80;99.90;;;;;;5024393;28;19916;-78
2023/04/09 05:42:29;;;;;;;;;;;8.80;99.90;;;;;;5023626;28;20517;-78
2023/04/09 05:44:55;;;;;;;;;;;9.00;99.90;;;;;;5019604;28;19936;-78
2023/04/09 05:47:20;;;;;;;;;;;8.90;99.90;;;;;;5018845;28;19921;-78
2023/04/09 05:49:46;;;;;;;;;;;9.00;99.90;;;;;;5012805;28;19999;-78
2023/04/09 05:52:12;;;;;;;;;;;9.10;99.90;;;;;;5031397;28;19956;-78
2023/04/09 05:54:37;;;;;;;;;;;9.10;99.90;;;;;;5033861;28;19924;-78
2023/04/09 05:57:03;;;;;;;;;;;8.70;99.90;;;;;;5024031;28;19916;-78
2023/04/09 05:59:28;;;;;;;;;;;8.60;99.90;;;;;;5020644;28;20115;-78
2023/04/09 06:01:54;;;;;;;;;;;8.50;99.90;;;;;;5021420;28;19992;-78
2023/04/09 06:04:19;;;;;;;;;;;8.30;99.90;;;;;;5023901;28;19920;-78
2023/04/09 06:06:46;;;;;;;;;;;8.40;99.90;;;;;;5024170;28;20009;-78
2023/04/09 06:09:12;;;;;;;;;;;8.70;99.90;;;;;;5008485;28;20519;-78
2023/04/09 06:11:38;;;;;;;;;;;8.50;99.90;;;;;;5021207;28;19920;-78
2023/04/09 06:14:03;;;;;;;;;;;8.70;99.90;;;;;;5016977;28;19955;-78
2023/04/09 06:16:29;;;;;;;;;;;8.50;99.90;;;;;;5022612;28;19921;-78
2023/04/09 06:18:55;;;;;;;;;;;8.40;99.90;;;;;;5021041;28;19917;-78
2023/04/09 06:21:21;;;;;;;;;;;8.40;99.90;;;;;;5022042;28;19916;-78
2023/04/09 06:23:46;;;;;;;;;;;8.70;99.90;;;;;;5036217;28;20333;-78
2023/04/09 06:26:12;;;;;;;;;;;9.00;99.90;;;;;;5017900;28;20380;-78
2023/04/09 06:28:37;;;;;;;;;;;8.60;99.90;;;;;;5019789;28;19920;-79
2023/04/09 06:31:03;;;;;;;;;;;8.50;99.90;;;;;;5020399;28;19916;-78
2023/04/09 06:33:29;;;;;;;;;;;8.50;99.90;;;;;;5019306;28;19921;-78
2023/04/09 06:35:55;;;;;;;;;;;8.70;99.90;;;;;;5020081;28;19966;-78
2023/04/09 06:38:20;;;;;;;;;;;8.60;99.90;;;;;;5040352;28;19959;-78
2023/04/09 06:40:46;;;;;;;;;;;8.60;99.90;;;;;;5021638;28;20404;-78
2023/04/09 06:43:11;;;;;;;;;;;9.10;99.90;;;;;;5020907;28;20023;-77
2023/04/09 06:45:37;;;;;;;;;;;9.00;99.90;;;;;;5038036;28;19932;-76
2023/04/09 06:48:03;;;;;;;;;;;9.30;99.90;;;;;;5020127;28;19939;-78
2023/04/09 06:50:28;;;;;;;;;;;9.30;99.90;;;;;;5038072;28;19942;-79
2023/04/09 06:52:54;;;;;;;;;;;9.00;99.90;;;;;;5034708;28;19965;-78
2023/04/09 06:55:20;;;;;;;;;;;9.10;99.90;;;;;;5020738;28;20585;-78
2023/04/09 06:57:46;;;;;;;;;;;9.70;99.90;;;;;;5023013;28;20010;-78
2023/04/09 07:00:12;;;;;;;;;;;9.70;99.90;;;;;;5022852;28;19928;-77
2023/04/09 07:02:38;;;;;;;;;;;9.70;99.90;;;;;;5019553;28;19967;-79
2023/04/09 07:05:03;;;;;;;;;;;9.30;99.90;;;;;;5022498;28;19972;-78
2023/04/09 07:07:29;;;;;;;;;;;9.70;99.90;;;;;;5006472;28;20313;-77
2023/04/09 07:09:55;;;;;;;;;;;9.60;99.90;;;;;;5022292;28;19959;-78
2023/04/09 07:12:27;;;;;;;;;;;9.40;99.90;;;;;;5022160;28;19927;-78
2023/04/09 07:14:56;;;;;;;;;;;9.10;99.90;;;;;;5021648;28;19916;-79
2023/04/09 07:17:21;;;;;;;;;;;9.10;99.90;;;;;;5004767;28;20375;-79
2023/04/09 07:19:47;;;;;;;;;;;8.90;99.90;;;;;;5040598;28;19927;-79
2023/04/09 07:22:12;;;;;;;;;;;9.30;99.90;;;;;;5021765;28;21764;-78
2023/04/09 07:24:38;;;;;;;;;;;9.10;99.90;;;;;;5039383;28;19946;-79
2023/04/09 07:27:03;;;;;;;;;;;9.50;99.90;;;;;;5019498;28;19920;-78
2023/04/09 07:29:29;;;;;;;;;;;9.20;99.90;;;;;;5019547;28;19934;-78
2023/04/09 07:31:54;;;;;;;;;;;9.20;99.90;;;;;;5017017;28;19923;-78
2023/04/09 07:34:20;;;;;;;;;;;9.30;99.90;;;;;;5039862;28;19974;-79
2023/04/09 07:36:45;;;;;;;;;;;9.70;99.90;;;;;;5038890;28;19924;-79
2023/04/09 07:39:11;;;;;;;;;;;10.40;99.90;;;;;;5039834;28;20647;-79
2023/04/09 07:41:37;;;;;;;;;;;9.50;99.90;;;;;;5021584;28;20031;-79
2023/04/09 07:44:02;;;;;;;;;;;9.80;99.90;;;;;;5020792;28;20416;-78
2023/04/09 07:46:28;;;;;;;;;;;9.80;99.90;;;;;;5021923;28;19959;-78
2023/04/09 07:48:53;;;;;;;;;;;9.40;99.90;;;;;;5039158;28;19917;-80
2023/04/09 07:51:19;;;;;;;;;;;9.90;99.90;;;;;;5014454;28;19921;-79
2023/04/09 07:53:44;;;;;;;;;;;10.20;99.90;;;;;;5004358;28;19952;-78
2023/04/09 07:56:11;;;;;;;;;;;10.10;99.90;;;;;;5033406;28;20702;-78
2023/04/09 07:58:39;;;;;;;;;;;10.00;99.90;;;;;;5020024;28;19975;-79
2023/04/09 08:01:05;;;;;;;;;;;10.00;99.90;;;;;;5017898;28;20011;-79
2023/04/09 08:03:30;;;;;;;;;;;10.10;99.90;;;;;;5018843;28;19994;-79
2023/04/09 08:05:56;;;;;;;;;;;10.30;99.90;;;;;;5011291;28;19930;-80
2023/04/09 08:08:22;;;;;;;;;;;11.10;99.90;;;;;;5012567;28;21429;-78
2023/04/09 08:10:47;;;;;;;;;;;11.50;99.90;;;;;;5030247;28;20309;-79
2023/04/09 08:13:13;;;;;;;;;;;11.90;99.90;;;;;;5019164;28;19918;-80
2023/04/09 08:15:38;;;;;;;;;;;12.10;99.90;;;;;;5018145;28;19921;-79
2023/04/09 08:18:04;;;;;;;;;;;11.70;99.90;;;;;;5029908;28;19929;-79
2023/04/09 08:20:31;;;;;;;;;;;10.60;99.90;;;;;;5021131;28;19947;-79
2023/04/09 08:22:58;;;;;;;;;;;11.10;99.90;;;;;;5019000;28;20581;-80
2023/04/09 08:25:23;;;;;;;;;;;11.80;99.90;;;;;;5020336;28;19921;-79
2023/04/09 08:27:49;;;;;;;;;;;12.30;99.90;;;;;;5013478;28;19917;-80
2023/04/09 08:30:14;;;;;;;;;;;11.50;99.90;;;;;;5035834;28;19920;-79
2023/04/09 08:32:40;;;;;;;;;;;11.90;99.90;;;;;;5034944;28;19917;-79
2023/04/09 08:35:06;;;;;;;;;;;11.70;99.90;;;;;;5017361;28;19932;-80
2023/04/09 08:37:32;;;;;;;;;;;11.90;99.90;;;;;;5016998;28;19921;-79
2023/04/09 08:39:57;;;;;;;;;;;11.70;99.90;;;;;;5023249;28;20321;-79
2023/04/09 08:42:24;;;;;;;;;;;11.70;99.90;;;;;;5011566;28;20003;-79
2023/04/09 08:44:49;;;;;;;;;;;12.20;99.90;;;;;;5023918;28;20384;-80
2023/04/09 08:47:15;;;;;;;;;;;11.80;99.90;;;;;;5017839;28;19936;-78
2023/04/09 08:49:40;;;;;;;;;;;11.50;99.90;;;;;;5025266;28;19917;-79
2023/04/09 08:52:06;;;;;;;;;;;11.90;99.90;;;;;;5021862;28;19925;-78
2023/04/09 08:54:32;;;;;;;;;;;12.60;99.90;;;;;;5023199;28;20011;-79
2023/04/09 08:56:58;;;;;;;;;;;12.90;99.90;;;;;;5014135;28;20015;-79
2023/04/09 08:59:23;;;;;;;;;;;12.90;99.90;;;;;;5033341;28;19944;-80
2023/04/09 09:02:05;;;;;;;;;;;13.10;99.90;;;;;;5042380;28;20282;-79
2023/04/09 09:04:42;;;;;;;;;;;13.50;99.90;;;;;;5022270;28;19923;-79
2023/04/09 09:07:08;;;;;;;;;;;13.50;99.90;;;;;;5020117;28;19921;-79
2023/04/09 09:09:48;;;;;;;;;;;12.80;99.90;;;;;;5021693;28;20380;-79
2023/04/09 09:12:28;;;;;;;;;;;12.80;99.90;;;;;;5022079;28;19955;-79
2023/04/09 09:14:53;;;;;;;;;;;13.40;99.90;;;;;;5022755;28;19932;-79
2023/04/09 09:17:19;;;;;;;;;;;12.70;99.90;;;;;;5021543;28;19928;-79
2023/04/09 09:19:44;;;;;;;;;;;12.30;99.90;;;;;;5010299;28;19929;-79
2023/04/09 09:22:12;;;;;;;;;;;13.40;99.90;;;;;;5019435;28;20015;-79
2023/04/09 09:24:47;;;;;;;;;;;13.90;99.90;;;;;;5032326;28;19982;-79
2023/04/09 09:27:35;;;;;;;;;;;12.20;99.90;;;;;;5005419;28;19943;-79
2023/04/09 09:30:04;;;;;;;;;;;11.90;99.90;;;;;;5003263;28;19921;-79
2023/04/09 09:32:30;;;;;;;;;;;13.20;99.90;;;;;;5023123;28;19920;-79
2023/04/09 09:35:04;;;;;;;;;;;13.80;99.90;;;;;;5010266;28;19924;-80
2023/04/09 09:37:30;;;;;;;;;;;14.10;99.90;;;;;;5000398;28;19963;-78
2023/04/09 09:39:56;;;;;;;;;;;13.40;99.90;;;;;;5008455;28;20365;-80
2023/04/09 09:42:21;;;;;;;;;;;12.50;99.90;;;;;;5004586;28;19923;-79
2023/04/09 09:44:47;;;;;;;;;;;13.20;99.90;;;;;;5011133;28;19929;-79
2023/04/09 09:47:13;;;;;;;;;;;12.30;99.90;;;;;;5001891;28;19920;-79
2023/04/09 09:49:39;;;;;;;;;;;13.70;99.90;;;;;;5003752;28;19921;-79
2023/04/09 09:52:08;;;;;;;;;;;13.40;99.90;;;;;;5026660;28;19927;-79
2023/04/09 09:54:39;;;;;;;;;;;14.20;99.90;;;;;;5004894;28;20023;-80
2023/04/09 09:57:06;;;;;;;;;;;14.10;99.90;;;;;;5007385;28;19920;-79
2023/04/09 09:59:35;;;;;;;;;;;13.50;99.90;;;;;;5009561;28;19927;-79
2023/04/09 10:02:03;;;;;;;;;;;13.90;99.90;;;;;;5002873;28;19917;-79
2023/04/09 10:04:32;;;;;;;;;;;13.90;99.90;;;;;;5010985;28;19928;-79
2023/04/09 10:06:59;;;;;;;;;;;14.30;99.90;;;;;;5019189;28;20000;-79
2023/04/09 10:09:26;;;;;;;;;;;14.80;99.90;;;;;;5025479;28;20364;-79
2023/04/09 10:11:54;;;;;;;;;;;14.30;99.90;;;;;;5007082;28;19967;-80
2023/04/09 10:14:20;;;;;;;;;;;13.40;99.90;;;;;;5002441;28;20043;-79
2023/04/09 10:16:46;;;;;;;;;;;13.50;99.90;;;;;;5007606;28;20718;-79
2023/04/09 10:19:13;;;;;;;;;;;13.10;99.90;;;;;;5001588;28;20891;-78
2023/04/09 10:21:42;;;;;;;;;;;13.90;99.90;;;;;;5014764;28;19920;-79
2023/04/09 10:24:08;;;;;;;;;;;14.70;99.90;;;;;;5009813;28;20640;-79
2023/04/09 10:26:35;;;;;;;;;;;14.70;99.90;;;;;;5007884;28;20046;-79
2023/04/09 10:29:05;;;;;;;;;;;14.80;99.90;;;;;;5025036;28;20562;-79
2023/04/09 10:31:50;;;;;;;;;;;14.50;99.90;;;;;;5007535;28;20586;-79
2023/04/09 10:34:26;;;;;;;;;;;12.90;99.90;;;;;;5023676;28;20023;-79
2023/04/09 10:36:54;;;;;;;;;;;12.90;99.90;;;;;;5001092;28;19921;-78
2023/04/09 10:39:20;;;;;;;;;;;13.90;99.90;;;;;;5019422;28;19967;-79
2023/04/09 10:41:47;;;;;;;;;;;14.00;99.90;;;;;;5033115;28;20023;-79
2023/04/09 10:44:23;;;;;;;;;;;14.90;99.90;;;;;;5004413;28;19943;-79
2023/04/09 10:46:51;;;;;;;;;;;15.00;99.90;;;;;;5007484;28;19924;-79
2023/04/09 10:49:16;;;;;;;;;;;14.80;99.90;;;;;;5014077;28;19974;-79
2023/04/09 10:51:52;;;;;;;;;;;13.70;99.90;;;;;;5035413;28;22495;-79
2023/04/09 10:54:33;;;;;;;;;;;13.40;99.90;;;;;;5014886;28;19921;-78
2023/04/09 10:57:09;;;;;;;;;;;13.00;99.90;;;;;;5021115;28;19916;-79
2023/04/09 10:59:35;;;;;;;;;;;13.40;99.90;;;;;;5023028;28;19929;-79
2023/04/09 11:02:01;;;;;;;;;;;14.20;99.90;;;;;;5022086;28;19928;-79
2023/04/09 11:04:36;;;;;;;;;;;15.20;99.90;;;;;;5036612;28;19925;-78
2023/04/09 11:07:03;;;;;;;;;;;14.60;99.90;;;;;;5019539;28;20050;-79
2023/04/09 11:09:28;;;;;;;;;;;15.50;99.90;;;;;;5017477;28;20373;-79
2023/04/09 11:11:56;;;;;;;;;;;16.00;99.90;;;;;;5020664;28;19917;-79
2023/04/09 11:14:22;;;;;;;;;;;14.80;99.90;;;;;;5015670;28;19928;-79
2023/04/09 11:16:48;;;;;;;;;;;14.40;99.90;;;;;;5014450;28;19924;-79
2023/04/09 11:19:13;;;;;;;;;;;14.70;99.90;;;;;;5022612;28;20653;-79
2023/04/09 11:21:45;;;;;;;;;;;14.70;99.90;;;;;;5019270;28;20390;-78
2023/04/09 11:24:14;;;;;;;;;;;16.00;99.90;;;;;;5019713;28;20292;-78
2023/04/09 11:26:40;;;;;;;;;;;13.80;99.90;;;;;;5037784;28;20466;-79
2023/04/09 11:29:07;;;;;;;;;;;13.80;99.90;;;;;;5017966;28;19920;-79
2023/04/09 11:31:32;;;;;;;;;;;13.90;99.90;;;;;;5020751;28;19971;-79
2023/04/09 11:33:58;;;;;;;;;;;14.40;99.90;;;;;;5019057;28;20359;-77
2023/04/09 11:36:23;;;;;;;;;;;14.20;99.90;;;;;;5033498;28;19974;-78
2023/04/09 11:38:50;;;;;;;;;;;14.20;99.90;;;;;;5018317;28;19947;-79
2023/04/09 11:41:15;;;;;;;;;;;15.40;99.90;;;;;;5013571;28;19927;-78
2023/04/09 11:43:41;;;;;;;;;;;15.50;99.90;;;;;;5033474;28;20016;-79
2023/04/09 11:46:07;;;;;;;;;;;16.20;99.90;;;;;;5022358;28;19964;-79
2023/04/09 11:48:33;;;;;;;;;;;16.70;99.90;;;;;;5016289;28;19947;-78
2023/04/09 11:50:59;;;;;;;;;;;16.90;99.90;;;;;;5022049;28;19920;-79
2023/04/09 11:53:29;;;;;;;;;;;17.00;99.90;;;;;;5018912;28;20360;-79
2023/04/09 11:55:55;;;;;;;;;;;16.30;99.90;;;;;;5013322;28;20731;-79
2023/04/09 11:58:25;;;;;;;;;;;16.70;99.90;;;;;;5011492;28;19969;-79
2023/04/09 12:00:54;;;;;;;;;;;17.20;99.90;;;;;;5009854;28;19921;-78
2023/04/09 12:03:26;;;;;;;;;;;16.80;99.90;;;;;;5030245;28;19920;-78
2023/04/09 12:05:51;;;;;;;;;;;17.10;99.90;;;;;;5019210;28;19929;-78
2023/04/09 12:08:21;;;;;;;;;;;16.80;99.90;;;;;;5016515;28;19928;-78
2023/04/09 12:10:46;;;;;;;;;;;17.20;99.90;;;;;;5009289;28;19947;-79
2023/04/09 12:13:12;;;;;;;;;;;17.20;99.90;;;;;;5016779;28;20386;-79
2023/04/09 12:15:40;;;;;;;;;;;17.30;99.90;;;;;;5020097;28;20107;-78
2023/04/09 12:18:09;;;;;;;;;;;17.70;99.90;;;;;;5013900;28;19928;-79
2023/04/09 12:20:36;;;;;;;;;;;16.20;99.90;;;;;;4997956;28;19924;-78
2023/04/09 12:23:03;;;;;;;;;;;16.70;99.90;;;;;;5031862;28;19921;-78
2023/04/09 12:25:31;;;;;;;;;;;15.90;99.90;;;;;;5012945;28;20012;-78
2023/04/09 12:27:57;;;;;;;;;;;15.30;99.90;;;;;;5016661;28;19929;-78
2023/04/09 12:30:23;;;;;;;;;;;15.90;99.90;;;;;;5011784;28;20444;-78
2023/04/09 12:32:49;;;;;;;;;;;17.00;99.90;;;;;;5034343;28;19929;-78
2023/04/09 12:35:14;;;;;;;;;;;16.50;99.90;;;;;;5016716;28;19927;-78
2023/04/09 12:37:43;;;;;;;;;;;16.90;99.90;;;;;;5035752;28;19928;-78
2023/04/09 12:40:09;;;;;;;;;;;17.10;99.90;;;;;;5003659;28;19951;-78
2023/04/09 12:42:35;;;;;;;;;;;17.70;99.90;;;;;;5004395;28;19924;-79
2023/04/09 12:45:00;;;;;;;;;;;17.10;99.90;;;;;;5007812;28;19921;-78
2023/04/09 12:47:26;;;;;;;;;;;16.40;99.90;;;;;;5002243;28;19936;-79
2023/04/09 12:49:53;;;;;;;;;;;15.90;99.90;;;;;;5005693;28;19931;-79
2023/04/09 12:52:18;;;;;;;;;;;16.50;99.90;;;;;;5007333;28;19959;-79
2023/04/09 12:54:44;;;;;;;;;;;15.60;99.90;;;;;;5006057;28;19996;-78
2023/04/09 12:57:09;;;;;;;;;;;16.10;99.90;;;;;;5021496;28;20020;-78
2023/04/09 12:59:35;;;;;;;;;;;17.00;99.90;;;;;;5002051;28;20444;-80
2023/04/09 13:02:00;;;;;;;;;;;17.00;99.90;;;;;;5004252;28;19921;-79
2023/04/09 13:04:26;;;;;;;;;;;16.30;99.90;;;;;;5002728;28;19920;-79
2023/04/09 13:06:52;;;;;;;;;;;17.20;99.90;;;;;;5003464;28;19924;-79
2023/04/09 13:09:17;;;;;;;;;;;17.20;99.90;;;;;;4987417;28;19920;-80
2023/04/09 13:11:43;;;;;;;;;;;16.50;99.90;;;;;;5007599;28;20483;-79
2023/04/09 13:14:12;;;;;;;;;;;17.20;99.90;;;;;;5021463;28;20254;-79
2023/04/09 13:16:38;;;;;;;;;;;16.60;99.90;;;;;;5010422;28;19944;-79
2023/04/09 13:19:05;;;;;;;;;;;17.40;99.90;;;;;;5002578;28;20318;-79
2023/04/09 13:21:30;;;;;;;;;;;17.50;99.90;;;;;;5006059;28;19921;-79
2023/04/09 13:23:56;;;;;;;;;;;16.70;99.90;;;;;;5023451;28;19932;-78
2023/04/09 13:26:21;;;;;;;;;;;16.40;99.90;;;;;;5010037;28;19929;-79
2023/04/09 13:28:47;;;;;;;;;;;16.50;99.90;;;;;;5009230;28;19924;-79
2023/04/09 13:31:12;;;;;;;;;;;16.40;99.90;;;;;;5022182;28;19920;-78
2023/04/09 13:33:38;;;;;;;;;;;17.10;99.90;;;;;;4991150;28;19928;-78
2023/04/09 13:36:03;;;;;;;;;;;16.30;99.90;;;;;;5023920;28;19951;-78
2023/04/09 13:38:29;;;;;;;;;;;17.60;99.90;;;;;;5007362;28;19921;-78
2023/04/09 13:40:54;;;;;;;;;;;17.70;99.90;;;;;;5010346;28;19952;-79
2023/04/09 13:43:20;;;;;;;;;;;17.80;99.90;;;;;;5007419;28;20007;-79
2023/04/09 13:45:46;;;;;;;;;;;17.90;99.90;;;;;;5007407;28;19924;-79
2023/04/09 13:48:12;;;;;;;;;;;17.40;99.90;;;;;;5009721;28;19921;-79
2023/04/09 13:50:38;;;;;;;;;;;17.20;99.90;;;;;;5019200;28;20430;-78
2023/04/09 13:53:04;;;;;;;;;;;17.60;99.90;;;;;;5006671;28;19931;-78
2023/04/09 13:55:30;;;;;;;;;;;18.00;99.90;;;;;;5008221;28;19921;-79
2023/04/09 13:57:55;;;;;;;;;;;18.20;99.90;;;;;;5002061;28;19928;-79
2023/04/09 14:00:21;;;;;;;;;;;17.90;99.90;;;;;;5010890;28;20284;-79
2023/04/09 14:02:46;;;;;;;;;;;17.90;99.90;;;;;;5012894;28;20324;-78
2023/04/09 14:05:12;;;;;;;;;;;18.10;99.90;;;;;;5031464;28;19939;-78
2023/04/09 14:07:37;;;;;;;;;;;18.20;99.90;;;;;;5013700;28;19925;-78
2023/04/09 14:10:03;;;;;;;;;;;18.40;99.90;;;;;;5014307;28;19962;-78
2023/04/09 14:12:29;;;;;;;;;;;17.90;99.90;;;;;;5012865;28;19916;-78
2023/04/09 14:14:54;;;;;;;;;;;17.90;99.90;;;;;;5024029;28;20394;-79
2023/04/09 14:17:20;;;;;;;;;;;18.20;99.90;;;;;;5007846;28;19921;-78
2023/04/09 14:19:46;;;;;;;;;;;18.30;99.90;;;;;;5012105;28;20389;-79
2023/04/09 14:22:11;;;;;;;;;;;17.80;99.90;;;;;;5009069;28;19956;-79